Time;durP1;ratioP1;P1;durP2;ratioP2;P2;SDS_P1;SDS_P2;PMS_P1;PMS_P2;Temp;Humidity;BMP_temperature;BMP_pressure;BME280_temperature;BME280_humidity;BME280_pressure;Samples;Min_cycle;Max_cycle;Signal;HPM_P1;HPM_P2
2023/09/04 00:01:20;;;;;;;9.87;8.13;;;;;;;12.93;100.00;101991.44;5053011;28;20601;-69
2023/09/04 00:03:46;;;;;;;8.90;7.50;;;;;;;12.92;100.00;101998.63;5051122;28;20068;-65
2023/09/04 00:06:11;;;;;;;14.07;8.07;;;;;;;12.91;100.00;101998.78;5052461;28;20039;-64
2023/09/04 00:08:37;;;;;;;10.97;7.57;;;;;;;12.85;100.00;101986.00;5050994;28;20345;-67
2023/09/04 00:11:03;;;;;;;7.80;7.10;;;;;;;12.89;100.00;101987.38;5052281;28;20460;-64
2023/09/04 00:13:28;;;;;;;9.13;7.87;;;;;;;12.88;100.00;101989.22;5052104;28;20025;-67
2023/09/04 00:15:56;;;;;;;10.93;7.77;;;;;;;12.78;100.00;101969.72;5050967;28;20091;-66
2023/09/04 00:18:22;;;;;;;9.90;6.77;;;;;;;12.86;100.00;101983.19;5050742;28;20040;-67
2023/09/04 00:20:48;;;;;;;9.27;7.47;;;;;;;12.73;100.00;101963.97;5050753;28;20025;-67
2023/09/04 00:23:14;;;;;;;7.63;6.93;;;;;;;12.83;100.00;101977.28;5052205;28;20037;-65
2023/09/04 00:25:39;;;;;;;8.00;6.97;;;;;;;12.67;100.00;101949.34;5051841;28;20021;-67
2023/09/04 00:28:05;;;;;;;7.70;6.90;;;;;;;12.83;100.00;101969.28;5050589;28;20067;-67
2023/09/04 00:30:31;;;;;;;7.73;6.93;;;;;;;12.81;100.00;101969.41;5050282;28;20052;-66
2023/09/04 00:32:57;;;;;;;7.30;6.60;;;;;;;12.73;100.00;101973.84;5051928;28;20098;-65
2023/09/04 00:35:22;;;;;;;9.03;6.80;;;;;;;12.77;100.00;101969.88;5051915;28;20029;-66
2023/09/04 00:37:48;;;;;;;9.07;6.93;;;;;;;12.57;100.00;101937.88;5051714;28;20567;-67
2023/09/04 00:40:14;;;;;;;6.90;6.27;;;;;;;12.74;100.00;101967.50;5052189;28;20086;-66
2023/09/04 00:42:39;;;;;;;8.57;6.97;;;;;;;12.71;100.00;101961.44;5050425;28;20039;-64
2023/09/04 00:45:06;;;;;;;8.90;6.90;;;;;;;12.69;100.00;101962.56;5050414;28;20031;-66
2023/09/04 00:47:32;;;;;;;8.23;7.07;;;;;;;12.69;100.00;101967.91;5051557;28;20029;-67
2023/09/04 00:49:58;;;;;;;8.70;7.80;;;;;;;12.65;100.00;101959.34;5051833;28;20028;-65
2023/09/04 00:52:25;;;;;;;10.87;7.43;;;;;;;12.51;100.00;101935.78;5050344;28;20087;-64
2023/09/04 00:54:52;;;;;;;8.60;7.73;;;;;;;12.34;100.00;101909.81;5050380;28;20044;-66
2023/09/04 00:57:18;;;;;;;9.00;8.10;;;;;;;12.58;100.00;101952.91;5050712;28;20029;-67
2023/09/04 00:59:45;;;;;;;9.80;8.70;;;;;;;12.48;100.00;101944.09;5054315;28;20127;-66
2023/09/04 01:02:13;;;;;;;10.67;9.67;;;;;;;12.48;100.00;101946.78;5055836;28;20108;-65
2023/09/04 01:04:39;;;;;;;9.73;8.75;;;;;;;12.59;100.00;101967.97;5055731;28;20025;-65
2023/09/04 01:07:04;;;;;;;13.87;10.60;;;;;;;12.59;100.00;101972.47;5055577;28;20423;-64
2023/09/04 01:09:30;;;;;;;18.53;10.93;;;;;;;12.58;100.00;101968.09;5055438;28;20070;-67
2023/09/04 01:12:05;;;;;;;12.97;10.57;;;;;;;12.56;100.00;101968.25;5055560;28;20047;-65
2023/09/04 01:14:33;;;;;;;12.97;11.67;;;;;;;12.54;100.00;101970.22;5037549;28;20033;-66
2023/09/04 01:17:00;;;;;;;12.65;10.82;;;;;;;12.53;100.00;101973.91;5057739;28;20053;-66
2023/09/04 01:19:25;;;;;;;17.07;13.23;;;;;;;12.46;100.00;101964.78;5059765;28;20055;-65
2023/09/04 01:21:51;;;;;;;15.60;13.33;;;;;;;12.50;100.00;101973.34;5055849;28;20029;-67
2023/09/04 01:24:16;;;;;;;15.57;13.93;;;;;;;12.34;100.00;101947.22;5055362;28;20112;-68
2023/09/04 01:26:58;;;;;;;15.33;13.73;;;;;;;12.33;100.00;101948.22;5055053;28;20029;-67
2023/09/04 01:29:33;;;;;;;18.37;13.97;;;;;;;12.43;100.00;101975.72;5055037;28;20037;-67
2023/09/04 01:32:20;;;;;;;17.00;15.20;;;;;;;12.45;100.00;101971.13;5055219;28;20045;-66
2023/09/04 01:34:49;;;;;;;17.03;15.23;;;;;;;12.42;100.00;101974.06;5053841;28;20036;-66
2023/09/04 01:37:16;;;;;;;17.90;15.23;;;;;;;12.28;100.00;101956.66;5054867;28;20040;-68
2023/09/04 01:39:43;;;;;;;18.17;16.27;;;;;;;12.31;100.00;101963.53;5054896;28;20321;-68
2023/09/04 01:42:08;;;;;;;20.77;17.63;;;;;;;12.06;100.00;101924.94;5055080;28;20036;-67
2023/09/04 01:44:34;;;;;;;18.47;16.57;;;;;;;12.27;100.00;101963.00;5055019;28;20021;-64
2023/09/04 01:47:00;;;;;;;21.13;15.10;;;;;;;12.29;100.00;101976.22;5053528;28;20035;-67
2023/09/04 01:49:25;;;;;;;22.13;16.47;;;;;;;12.26;100.00;101971.16;5054702;28;20045;-65
2023/09/04 01:51:53;;;;;;;19.77;15.33;;;;;;;12.15;100.00;101958.81;5053318;28;20460;-68
2023/09/04 01:54:19;;;;;;;17.40;15.60;;;;;;;12.20;100.00;101971.75;5054821;28;20151;-67
2023/09/04 01:56:45;;;;;;;16.20;14.50;;;;;;;12.25;100.00;101990.84;5054553;28;20123;-64
2023/09/04 01:59:10;;;;;;;16.93;15.23;;;;;;;12.10;100.00;101969.06;5053109;28;20128;-70
2023/09/04 02:01:36;;;;;;;20.33;16.60;;;;;;;12.22;100.00;101993.81;5054404;28;20040;-65
2023/09/04 02:04:01;;;;;;;21.47;16.50;;;;;;;12.18;100.00;101987.91;5054350;28;20033;-66
2023/09/04 02:06:29;;;;;;;19.13;15.87;;;;;;;12.20;100.00;101998.44;5053274;28;20033;-68
2023/09/04 02:08:55;;;;;;;19.20;14.68;;;;;;;12.20;100.00;101998.44;5054010;28;20029;-66
2023/09/04 02:11:21;;;;;;;16.80;14.67;;;;;;;12.19;100.00;101992.25;5054178;28;20021;-66
2023/09/04 02:13:46;;;;;;;14.90;13.17;;;;;;;12.18;100.00;101987.06;5053091;28;20028;-66
2023/09/04 02:16:12;;;;;;;15.27;12.87;;;;;;;12.17;100.00;101982.72;5054140;28;20535;-66
2023/09/04 02:18:38;;;;;;;15.87;13.50;;;;;;;11.86;100.00;101937.50;5053999;28;20039;-67
2023/09/04 02:21:04;;;;;;;16.70;12.83;;;;;;;12.12;100.00;101983.13;5053854;28;20033;-66
2023/09/04 02:23:30;;;;;;;15.30;12.10;;;;;;;12.09;100.00;101981.56;5054234;28;20028;-65
2023/09/04 02:25:56;;;;;;;11.77;10.57;;;;;;;12.00;100.00;101966.41;5054187;28;20124;-66
2023/09/04 02:28:22;;;;;;;14.87;10.83;;;;;;;12.18;100.00;101989.75;5053020;28;20033;-64
2023/09/04 02:30:48;;;;;;;15.20;11.07;;;;;;;12.20;100.00;101985.09;5054571;28;20464;-66
2023/09/04 02:33:13;;;;;;;16.83;10.97;;;;;;;12.23;100.00;101982.13;5053779;28;20037;-66
2023/09/04 02:35:39;;;;;;;12.50;9.80;;;;;;;12.26;100.00;101976.50;5053961;28;20097;-67
2023/09/04 02:38:04;;;;;;;13.10;10.40;;;;;;;12.07;100.00;101929.31;5052576;28;20025;-64
2023/09/04 02:40:30;;;;;;;13.20;10.27;;;;;;;12.36;100.00;101969.28;5053870;28;20025;-65
2023/09/04 02:42:55;;;;;;;10.90;8.70;;;;;;;12.45;100.00;101972.94;5053821;28;20068;-66
2023/09/04 02:45:21;;;;;;;9.47;8.47;;;;;;;12.62;100.00;101991.72;5052508;28;20423;-65
2023/09/04 02:47:47;;;;;;;10.87;8.80;;;;;;;12.47;100.00;101957.59;5052375;28;20037;-67
2023/09/04 02:50:12;;;;;;;10.67;8.23;;;;;;;12.64;100.00;101981.72;5052610;28;20021;-68
2023/09/04 02:52:38;;;;;;;9.53;8.20;;;;;;;12.72;100.00;101989.00;5052412;28;20414;-68
2023/09/04 02:55:04;;;;;;;10.07;8.43;;;;;;;12.65;100.00;101967.38;5053471;28;20032;-67
2023/09/04 02:57:31;;;;;;;11.77;8.67;;;;;;;12.64;100.00;101976.38;5053677;28;20078;-67
2023/09/04 02:59:58;;;;;;;9.37;8.30;;;;;;;12.79;100.00;101990.13;5053353;28;20060;-66
2023/09/04 03:02:23;;;;;;;10.30;8.23;;;;;;;12.65;100.00;101964.69;5053142;28;20025;-67
2023/09/04 03:04:56;;;;;;;12.80;9.00;;;;;;;12.65;100.00;101967.38;5053243;28;20082;-65
2023/09/04 03:07:22;;;;;;;13.07;8.77;;;;;;;12.64;100.00;101978.22;5052249;28;20113;-65
2023/09/04 03:09:52;;;;;;;10.80;9.23;;;;;;;12.34;100.00;101925.84;5053708;28;20124;-66
2023/09/04 03:12:18;;;;;;;11.83;9.63;;;;;;;12.55;100.00;101976.41;5053306;28;20025;-65
2023/09/04 03:14:43;;;;;;;15.17;9.13;;;;;;;12.37;100.00;101961.13;5052948;28;20036;-67
2023/09/04 03:17:09;;;;;;;12.17;9.43;;;;;;;12.40;100.00;101960.84;5053200;28;20155;-68
2023/09/04 03:19:34;;;;;;;15.03;9.93;;;;;;;12.40;100.00;101968.84;5052993;28;20044;-69
2023/09/04 03:22:00;;;;;;;11.37;9.17;;;;;;;12.32;100.00;101958.06;5051789;28;20077;-66
2023/09/04 03:24:26;;;;;;;15.67;9.67;;;;;;;12.37;100.00;101971.81;5053046;28;20044;-67
2023/09/04 03:26:52;;;;;;;16.03;11.77;;;;;;;12.41;100.00;101975.03;5052943;28;20021;-67
2023/09/04 03:29:17;;;;;;;11.63;9.43;;;;;;;12.41;100.00;101980.38;5052489;28;20036;-66
2023/09/04 03:31:46;;;;;;;12.70;10.13;;;;;;;12.41;100.00;101985.72;5052722;28;20119;-66
2023/09/04 03:34:12;;;;;;;13.00;10.43;;;;;;;12.41;100.00;101981.22;5052579;28;20040;-64
2023/09/04 03:36:37;;;;;;;14.83;10.60;;;;;;;12.35;100.00;101981.81;5052749;28;20068;-64
2023/09/04 03:39:05;;;;;;;13.00;10.20;;;;;;;12.44;100.00;102004.16;5052676;28;20063;-67
2023/09/04 03:41:31;;;;;;;20.33;10.23;;;;;;;12.42;100.00;101992.75;5051456;28;20036;-64
2023/09/04 03:43:56;;;;;;;14.07;10.33;;;;;;;12.40;100.00;101989.38;5052773;28;20321;-64
2023/09/04 03:46:22;;;;;;;13.13;9.80;;;;;;;12.47;100.00;102000.34;5052433;28;20025;-67
2023/09/04 03:48:47;;;;;;;13.97;10.13;;;;;;;12.43;100.00;101989.09;5052682;28;20089;-66
2023/09/04 03:51:13;;;;;;;14.67;11.00;;;;;;;12.51;100.00;101999.91;5051464;28;20391;-66
2023/09/04 03:53:38;;;;;;;11.87;10.27;;;;;;;12.44;100.00;101990.81;5052545;28;20033;-67
2023/09/04 03:56:04;;;;;;;15.83;11.40;;;;;;;12.48;100.00;101994.88;5051427;28;20032;-66
2023/09/04 03:58:31;;;;;;;19.93;11.57;;;;;;;12.55;100.00;102008.50;5052692;28;20033;-67
2023/09/04 04:00:57;;;;;;;15.17;10.97;;;;;;;12.58;100.00;102006.38;5052548;28;20028;-66
2023/09/04 04:03:23;;;;;;;15.97;10.77;;;;;;;12.55;100.00;101993.28;5052434;28;20091;-68
2023/09/04 04:05:48;;;;;;;16.73;10.33;;;;;;;12.63;100.00;102006.75;5053510;28;20029;-66
2023/09/04 04:08:16;;;;;;;14.13;11.33;;;;;;;12.58;100.00;101987.66;5051149;28;20035;-67
2023/09/04 04:10:44;;;;;;;16.08;11.75;;;;;;;12.70;100.00;101997.16;5034616;28;20126;-66
2023/09/04 04:13:10;;;;;;;14.73;11.37;;;;;;;12.71;100.00;101998.84;5051924;28;20033;-66
2023/09/04 04:15:38;;;;;;;15.37;11.60;;;;;;;12.80;100.00;101996.31;5051863;28;20475;-66
2023/09/04 04:18:09;;;;;;;13.93;11.57;;;;;;;12.85;100.00;101994.03;5052631;28;20028;-67
2023/09/04 04:20:34;;;;;;;12.13;10.90;;;;;;;12.88;100.00;101999.91;5051046;28;20082;-66
2023/09/04 04:23:00;;;;;;;18.60;12.67;;;;;;;12.91;100.00;102006.81;5051467;28;20025;-67
2023/09/04 04:25:26;;;;;;;17.47;11.37;;;;;;;12.82;100.00;101988.97;5050557;28;20083;-67
2023/09/04 04:27:51;;;;;;;16.90;12.07;;;;;;;12.89;100.00;101993.56;5050479;28;20036;-66
2023/09/04 04:30:17;;;;;;;16.27;11.60;;;;;;;12.88;100.00;101989.22;5051761;28;20044;-65
2023/09/04 04:32:43;;;;;;;17.90;12.33;;;;;;;13.00;100.00;102013.94;5051531;28;20124;-64
2023/09/04 04:35:08;;;;;;;13.87;11.07;;;;;;;13.01;100.00;102016.47;5050599;28;20024;-66
2023/09/04 04:37:34;;;;;;;14.20;11.27;;;;;;;12.89;100.00;101995.41;5051800;28;20043;-67
2023/09/04 04:40:05;;;;;;;43.30;35.23;;;;;;;12.94;100.00;102001.16;5033746;28;20479;-67
2023/09/04 04:42:31;;;;;;;19.30;15.77;;;;;;;12.95;100.00;102002.84;5051703;28;20059;-66
2023/09/04 04:44:56;;;;;;;17.83;14.47;;;;;;;13.05;100.00;102018.84;5051696;28;20060;-69
2023/09/04 04:47:22;;;;;;;17.57;13.53;;;;;;;13.10;100.00;102030.78;5052210;28;20029;-67
2023/09/04 04:49:47;;;;;;;16.53;12.80;;;;;;;13.00;100.00;102003.22;5050625;28;20029;-66
2023/09/04 04:52:12;;;;;;;15.17;13.27;;;;;;;13.07;100.00;102000.81;5049725;28;20024;-69
2023/09/04 04:54:38;;;;;;;18.03;12.70;;;;;;;13.24;100.00;102022.28;5051449;28;20079;-68
2023/09/04 04:57:04;;;;;;;20.60;12.00;;;;;;;13.02;100.00;101986.06;5050766;28;20053;-69
2023/09/04 04:59:29;;;;;;;17.77;11.93;;;;;;;13.32;100.00;102030.44;5050509;28;20031;-70
2023/09/04 05:01:56;;;;;;;16.60;11.73;;;;;;;13.46;100.00;102036.25;5050607;28;20067;-68
2023/09/04 05:04:22;;;;;;;12.50;11.20;;;;;;;13.45;100.00;102013.16;5051687;28;20489;-66
2023/09/04 05:06:47;;;;;;;18.93;11.87;;;;;;;13.66;100.00;102039.66;5051424;28;20092;-67
2023/09/04 05:09:13;;;;;;;12.17;10.00;;;;;;;13.74;100.00;102029.84;5051459;28;20388;-65
2023/09/04 05:11:38;;;;;;;14.27;10.97;;;;;;;13.83;100.00;102031.63;5050079;28;20021;-68
2023/09/04 05:14:04;;;;;;;14.23;10.37;;;;;;;13.61;100.00;101975.88;5051086;28;20026;-69
2023/09/04 05:16:29;;;;;;;14.20;11.30;;;;;;;14.02;100.00;102021.75;5051580;28;20032;-67
2023/09/04 05:18:55;;;;;;;11.87;9.43;;;;;;;14.08;100.00;102018.44;5051541;28;20531;-72
2023/09/04 05:21:20;;;;;;;10.60;8.10;;;;;;;14.16;100.00;102007.78;5051564;28;20068;-69
2023/09/04 05:23:47;;;;;;;13.53;10.67;;;;;;;14.44;100.00;102035.31;5051806;28;20037;-75
2023/09/04 05:26:13;;;;;;;10.60;9.50;;;;;;;14.54;100.00;102034.25;5051441;28;20110;-67
2023/09/04 05:28:38;;;;;;;13.77;8.33;;;;;;;14.68;100.00;102046.22;5051243;28;20041;-67
2023/09/04 05:31:04;;;;;;;11.27;7.97;;;;;;;14.80;100.00;102044.13;5050254;28;20135;-68
2023/09/04 05:33:30;;;;;;;8.67;7.77;;;;;;;14.86;100.00;102038.97;5051461;28;20033;-72
2023/09/04 05:35:56;;;;;;;16.50;9.47;;;;;;;14.91;100.00;102030.44;5051308;28;20128;-70
2023/09/04 05:38:22;;;;;;;12.00;9.53;;;;;;;15.00;100.00;102034.81;5051238;28;20166;-67
2023/09/04 05:40:49;;;;;;;13.70;8.33;;;;;;;15.07;100.00;102037.72;5050250;28;20021;-69
2023/09/04 05:43:14;;;;;;;10.13;9.13;;;;;;;15.11;100.00;102031.03;5050121;28;20353;-70
2023/09/04 05:45:39;;;;;;;10.43;8.17;;;;;;;15.19;100.00;102052.53;5054154;28;20047;-69
2023/09/04 05:48:06;;;;;;;9.47;5.70;;;;;;;15.15;100.00;102049.31;5054539;28;20036;-69
2023/09/04 05:50:32;;;;;;;8.10;5.53;;;;;;;15.07;100.00;102035.88;5053047;28;20033;-68
2023/09/04 05:52:57;;;;;;;6.63;5.67;;;;;;;15.06;100.00;102036.88;5054224;28;20460;-69
2023/09/04 05:55:22;;;;;;;6.47;5.40;;;;;;;15.05;100.00;102035.19;5053878;28;20032;-67
2023/09/04 05:57:48;;;;;;;4.87;4.47;;;;;;;15.10;100.00;102042.75;5054469;28;20159;-68
2023/09/04 06:00:15;;;;;;;7.03;4.33;;;;;;;15.12;100.00;102049.66;5053862;28;20532;-68
2023/09/04 06:02:41;;;;;;;5.63;4.30;;;;;;;15.08;100.00;102042.94;5054114;28;20606;-68
2023/09/04 06:05:07;;;;;;;4.87;3.50;;;;;;;15.09;100.00;102041.94;5054301;28;20111;-66
2023/09/04 06:07:34;;;;;;;9.47;5.40;;;;;;;15.13;100.00;102045.13;5054512;28;20464;-68
2023/09/04 06:09:59;;;;;;;6.97;4.10;;;;;;;15.22;100.00;102049.50;5054079;28;20102;-68
2023/09/04 06:12:25;;;;;;;7.63;3.87;;;;;;;15.20;100.00;102051.53;5054599;28;20487;-66
2023/09/04 06:14:50;;;;;;;4.83;4.10;;;;;;;15.30;100.00;102071.00;5054136;28;20419;-67
2023/09/04 06:17:15;;;;;;;5.43;3.40;;;;;;;15.12;100.00;102048.81;5054162;28;20040;-68
2023/09/04 06:19:41;;;;;;;7.60;3.13;;;;;;;15.19;100.00;102066.78;5052965;28;20029;-67
2023/09/04 06:22:06;;;;;;;9.40;3.20;;;;;;;15.34;100.00;102085.81;5054163;28;20452;-67
2023/09/04 06:24:32;;;;;;;6.20;3.17;;;;;;;15.29;100.00;102081.91;5053753;28;20051;-68
2023/09/04 06:26:57;;;;;;;4.83;2.87;;;;;;;15.04;100.00;102041.56;5053898;28;20083;-67
2023/09/04 06:29:24;;;;;;;6.10;3.53;;;;;;;15.33;100.00;102081.44;5053591;28;20052;-68
2023/09/04 06:31:50;;;;;;;4.23;2.53;;;;;;;15.46;100.00;102089.88;5053865;28;20480;-66
2023/09/04 06:34:16;;;;;;;3.53;2.93;;;;;;;15.51;100.00;102089.38;5053918;28;20047;-68
2023/09/04 06:36:41;;;;;;;3.23;2.87;;;;;;;15.52;97.34;102083.00;5053904;28;20068;-67
2023/09/04 06:39:07;;;;;;;4.70;3.13;;;;;;;15.68;97.56;102088.47;5052407;28;20029;-67
2023/09/04 06:41:32;;;;;;;2.63;2.43;;;;;;;15.62;96.03;102067.66;5053605;28;20510;-67
2023/09/04 06:43:58;;;;;;;5.23;2.57;;;;;;;15.84;95.46;102081.44;5053747;28;20032;-68
2023/09/04 06:46:24;;;;;;;4.83;2.57;;;;;;;16.05;93.93;102081.81;5053831;28;20029;-67
2023/09/04 06:48:50;;;;;;;6.53;2.93;;;;;;;16.14;93.52;102072.75;5053593;28;20029;-67
2023/09/04 06:51:16;;;;;;;8.17;2.90;;;;;;;16.37;93.58;102083.69;5053547;28;20208;-66
2023/09/04 06:53:42;;;;;;;8.80;3.20;;;;;;;16.52;90.61;102087.38;5053490;28;20033;-68
2023/09/04 06:56:08;;;;;;;5.77;3.00;;;;;;;16.68;89.56;102065.84;5053330;28;20028;-68
2023/09/04 06:58:34;;;;;;;4.53;2.60;;;;;;;16.94;88.53;102057.56;5053529;28;20029;-68
2023/09/04 07:01:03;;;;;;;6.20;2.80;;;;;;;17.21;86.08;102061.69;5053795;28;20360;-69
2023/09/04 07:03:29;;;;;;;3.53;2.53;;;;;;;17.23;83.29;102053.41;5053674;28;20094;-68
2023/09/04 07:05:55;;;;;;;9.97;2.40;;;;;;;17.32;82.39;102074.75;5053555;28;20495;-68
2023/09/04 07:08:20;;;;;;;7.20;2.40;;;;;;;17.42;84.58;102071.03;5052030;28;20484;-66
2023/09/04 07:10:47;;;;;;;5.73;2.53;;;;;;;17.53;83.18;102066.06;5053351;28;20025;-67
2023/09/04 07:13:13;;;;;;;4.00;2.15;;;;;;;17.67;83.91;102071.72;5053371;28;20032;-67
2023/09/04 07:15:40;;;;;;;6.13;2.78;;;;;;;17.64;85.88;102044.13;5054489;28;20037;-69
2023/09/04 07:18:06;;;;;;;3.33;2.17;;;;;;;17.72;86.16;102064.81;5055971;28;20029;-68
2023/09/04 07:20:32;;;;;;;4.05;2.17;;;;;;;17.87;86.67;102056.78;5053207;28;20028;-66
2023/09/04 07:22:58;;;;;;;8.65;2.63;;;;;;;18.02;86.76;102049.63;5053040;28;20021;-64
2023/09/04 07:25:23;;;;;;;5.05;2.72;;;;;;;18.05;87.98;102038.47;5052988;28;20037;-66
2023/09/04 07:27:49;;;;;;;2.72;2.40;;;;;;;17.63;85.63;101958.91;5052832;28;20049;-67
2023/09/04 07:30:14;;;;;;;5.35;2.88;;;;;;;18.33;85.01;102067.56;5053028;28;20063;-66
2023/09/04 07:32:40;;;;;;;3.70;2.65;;;;;;;18.20;85.45;102058.22;5052942;28;20041;-68
2023/09/04 07:35:06;;;;;;;5.88;2.90;;;;;;;18.29;85.80;102077.06;5052627;28;20419;-65
2023/09/04 07:37:32;;;;;;;2.95;1.95;;;;;;;18.15;83.57;102075.97;5052648;28;20037;-69
2023/09/04 07:39:58;;;;;;;5.07;2.00;;;;;;;17.72;84.13;102027.09;5053075;28;20031;-66
2023/09/04 07:42:24;;;;;;;3.90;2.08;;;;;;;17.87;85.07;102089.13;5053487;28;20387;-66
2023/09/04 07:44:50;;;;;;;5.28;2.25;;;;;;;17.68;86.94;102089.59;5052803;28;20057;-68
2023/09/04 07:47:15;;;;;;;9.20;2.30;;;;;;;17.51;88.72;102080.72;5052915;28;20170;-66
2023/09/04 07:49:41;;;;;;;9.88;2.03;;;;;;;17.32;90.20;102073.91;5052666;28;20033;-70
2023/09/04 07:52:07;;;;;;;8.35;2.60;;;;;;;17.15;91.21;102072.31;5052386;28;20384;-65
2023/09/04 07:54:32;;;;;;;10.95;3.17;;;;;;;17.26;91.43;102098.84;5052435;28;20052;-65
2023/09/04 07:57:00;;;;;;;6.90;2.55;;;;;;;17.27;91.84;102079.81;5052498;28;20138;-66
2023/09/04 07:59:25;;;;;;;11.30;3.22;;;;;;;17.44;92.36;102074.38;5052391;28;20449;-68
2023/09/04 08:01:51;;;;;;;9.45;2.58;;;;;;;17.46;91.78;102094.72;5052206;28;20039;-68
2023/09/04 08:04:16;;;;;;;4.87;2.97;;;;;;;17.27;91.70;102079.81;5052321;28;20140;-65
2023/09/04 08:06:42;;;;;;;5.43;3.60;;;;;;;17.38;93.11;102089.38;5052014;28;20032;-71
2023/09/04 08:09:07;;;;;;;16.75;3.92;;;;;;;17.25;93.87;102063.00;5051862;28;20032;-70
2023/09/04 08:11:34;;;;;;;4.78;2.33;;;;;;;17.39;91.86;102088.38;5051214;28;20119;-68
2023/09/04 08:14:00;;;;;;;7.38;2.95;;;;;;;17.32;91.86;102073.91;5053066;28;20060;-66
2023/09/04 08:16:25;;;;;;;10.07;3.00;;;;;;;17.41;92.33;102086.34;5052636;28;20071;-66
2023/09/04 08:18:50;;;;;;;3.75;2.55;;;;;;;17.41;92.74;102077.41;5054341;28;20055;-67
2023/09/04 08:21:16;;;;;;;8.47;3.53;;;;;;;17.52;92.18;102088.63;5057613;28;20032;-67
2023/09/04 08:23:42;;;;;;;8.48;2.50;;;;;;;17.59;91.83;102086.91;5056129;28;20433;-68
2023/09/04 08:26:08;;;;;;;6.93;3.63;;;;;;;17.46;90.98;102054.31;5057957;28;20033;-68
2023/09/04 08:28:34;;;;;;;7.20;2.38;;;;;;;17.65;91.05;102083.53;5059027;28;20031;-68
2023/09/04 08:31:00;;;;;;;11.88;3.50;;;;;;;17.74;91.20;102088.88;5053812;28;20041;-66
2023/09/04 08:33:26;;;;;;;7.82;2.95;;;;;;;17.81;90.29;102098.78;5052725;28;20033;-66
2023/09/04 08:35:51;;;;;;;8.18;2.78;;;;;;;17.67;90.19;102096.84;5052873;28;20041;-66
2023/09/04 08:38:17;;;;;;;5.53;3.17;;;;;;;17.69;90.66;102102.91;5053224;28;20032;-66
2023/09/04 08:40:42;;;;;;;5.97;2.97;;;;;;;17.65;90.37;102102.38;5053123;28;20120;-66
2023/09/04 08:43:08;;;;;;;9.38;3.05;;;;;;;17.48;91.63;102083.78;5057911;28;20036;-67
2023/09/04 08:45:35;;;;;;;9.65;3.30;;;;;;;17.59;92.71;102104.91;5056976;28;20482;-67
2023/09/04 08:48:03;;;;;;;5.75;3.33;;;;;;;17.51;93.76;102089.66;5057822;28;20032;-69
2023/09/04 08:50:30;;;;;;;5.00;2.63;;;;;;;17.49;93.41;102099.75;5059806;28;20037;-69
2023/09/04 08:52:55;;;;;;;4.78;2.78;;;;;;;17.36;95.00;102088.72;5057343;28;20457;-68
2023/09/04 08:55:21;;;;;;;6.07;2.85;;;;;;;17.21;95.69;102077.81;5055044;28;20029;-66
2023/09/04 08:57:47;;;;;;;8.82;3.28;;;;;;;17.23;95.96;102081.19;5054231;28;20079;-68
2023/09/04 09:00:14;;;;;;;6.75;2.45;;;;;;;17.20;95.21;102083.38;5055814;28;20106;-67
2023/09/04 09:02:41;;;;;;;8.82;2.78;;;;;;;17.39;95.35;102087.53;5054802;28;20039;-67
2023/09/04 09:05:08;;;;;;;5.05;2.80;;;;;;;17.39;95.00;102069.53;5053534;28;20128;-66
2023/09/04 09:07:37;;;;;;;8.23;3.10;;;;;;;17.52;93.64;102074.31;5034156;28;20912;-67
2023/09/04 09:10:06;;;;;;;12.48;6.50;;;;;;;17.65;95.49;102080.84;5051610;28;20491;-66
2023/09/04 09:12:32;;;;;;;7.00;2.55;;;;;;;17.69;94.47;102077.81;5051744;28;20028;-69
2023/09/04 09:15:00;;;;;;;7.18;2.90;;;;;;;17.84;92.14;102086.78;5051416;28;20024;-65
2023/09/04 09:17:26;;;;;;;4.80;2.63;;;;;;;17.81;92.02;102084.47;5051368;28;20036;-67
2023/09/04 09:19:51;;;;;;;4.60;2.45;;;;;;;17.85;91.42;102092.00;5052667;28;20029;-68
2023/09/04 09:22:19;;;;;;;3.95;2.95;;;;;;;17.95;90.87;102102.56;5055366;28;20037;-65
2023/09/04 09:25:05;;;;;;;6.45;2.70;;;;;;;18.08;90.26;102102.81;5055417;28;20032;-67
2023/09/04 09:27:32;;;;;;;8.15;2.92;;;;;;;18.14;89.03;102106.63;5054099;28;20362;-67
2023/09/04 09:30:00;;;;;;;2.70;2.20;;;;;;;18.12;87.81;102087.13;5055360;28;20075;-64
2023/09/04 09:32:33;;;;;;;6.13;2.30;;;;;;;18.27;88.17;102101.50;5053773;28;20445;-66
2023/09/04 09:35:01;;;;;;;4.15;2.70;;;;;;;18.20;86.71;102074.41;5055280;28;20041;-65
2023/09/04 09:37:30;;;;;;;2.75;2.40;;;;;;;18.25;86.81;102066.63;5055265;28;20037;-67
2023/09/04 09:39:56;;;;;;;2.88;2.08;;;;;;;18.47;86.34;102074.84;5053766;28;20039;-67
2023/09/04 09:42:23;;;;;;;3.38;2.45;;;;;;;18.51;86.79;102087.81;5054828;28;20115;-66
2023/09/04 09:44:50;;;;;;;11.02;6.65;;;;;;;18.55;86.54;102086.41;5054797;28;20509;-65
2023/09/04 09:47:16;;;;;;;3.17;2.15;;;;;;;18.68;86.11;102095.78;5055144;28;20116;-65
2023/09/04 09:49:43;;;;;;;4.78;2.63;;;;;;;18.58;84.79;102083.34;5055177;28;20391;-67
2023/09/04 09:52:10;;;;;;;9.95;3.85;;;;;;;18.60;83.78;102088.56;5054884;28;20102;-66
2023/09/04 09:54:43;;;;;;;3.67;2.40;;;;;;;18.78;82.98;102091.78;5055095;28;20032;-68
2023/09/04 09:57:12;;;;;;;3.70;2.40;;;;;;;18.47;82.85;102023.59;5054808;28;20083;-66
2023/09/04 09:59:41;;;;;;;6.13;2.30;;;;;;;18.82;83.79;102090.41;5054975;28;20025;-69
2023/09/04 10:02:07;;;;;;;4.25;2.40;;;;;;;18.87;83.49;102108.75;5055944;28;20032;-66
2023/09/04 10:04:34;;;;;;;3.97;2.75;;;;;;;18.64;83.54;102081.81;5054556;28;20379;-67
2023/09/04 10:07:02;;;;;;;5.17;2.20;;;;;;;18.63;82.35;102090.94;5056348;28;20031;-65
2023/09/04 10:09:34;;;;;;;5.55;2.78;;;;;;;18.50;83.41;102074.47;5056889;28;20735;-66
2023/09/04 10:12:07;;;;;;;6.40;3.38;;;;;;;18.70;84.36;102101.81;5054794;28;20120;-65
2023/09/04 10:14:39;;;;;;;6.45;3.35;;;;;;;18.55;83.67;102066.69;5055690;28;20384;-66
2023/09/04 10:17:08;;;;;;;6.18;2.88;;;;;;;18.82;82.88;102089.56;5053712;28;20032;-65
2023/09/04 10:19:37;;;;;;;8.18;3.30;;;;;;;18.83;81.56;102080.44;5054284;28;20033;-67
2023/09/04 10:22:04;;;;;;;3.35;2.88;;;;;;;18.86;81.53;102085.47;5039825;28;20033;-68
2023/09/04 10:24:58;;;;;;;4.68;2.67;;;;;;;18.95;80.81;102086.22;5053999;28;20032;-66
2023/09/04 10:27:27;;;;;;;8.30;4.72;;;;;;;19.05;80.17;102090.31;5030378;28;20021;-66
2023/09/04 10:30:02;;;;;;;5.05;2.88;;;;;;;19.13;77.84;102097.50;5050704;28;20048;-67
2023/09/04 10:32:30;;;;;;;3.42;2.47;;;;;;;19.11;77.89;102091.44;5052548;28;20036;-65
2023/09/04 10:34:56;;;;;;;7.88;2.88;;;;;;;19.19;78.69;102086.78;5053697;28;20029;-69
2023/09/04 10:37:26;;;;;;;4.57;2.53;;;;;;;19.26;76.37;102092.25;5053823;28;20033;-65
2023/09/04 10:39:53;;;;;;;3.35;2.70;;;;;;;19.34;76.54;102081.34;5045613;28;20060;-64
2023/09/04 10:42:19;;;;;;;4.63;3.10;;;;;;;19.56;78.18;102094.94;5051619;28;20027;-65
2023/09/04 10:44:51;;;;;;;3.53;2.22;;;;;;;19.65;76.50;102081.13;5047940;28;20044;-64
2023/09/04 10:47:17;;;;;;;7.57;3.22;;;;;;;19.56;75.10;102059.81;5052987;28;20024;-67
2023/09/04 10:49:44;;;;;;;3.53;2.42;;;;;;;19.67;74.12;102067.47;5053494;28;20468;-65
2023/09/04 10:52:10;;;;;;;4.43;2.53;;;;;;;19.70;74.15;102072.47;5053514;28;20574;-67
2023/09/04 10:54:37;;;;;;;9.35;3.53;;;;;;;19.56;72.89;102081.44;5051517;28;20024;-66
2023/09/04 10:57:07;;;;;;;2.88;2.17;;;;;;;19.61;72.67;102090.66;5054956;28;20035;-66
2023/09/04 10:59:57;;;;;;;5.38;2.67;;;;;;;19.64;73.62;102079.47;5035885;28;20491;-65
2023/09/04 11:02:29;;;;;;;5.72;3.30;;;;;;;19.58;73.16;102063.19;5052897;28;20025;-66
2023/09/04 11:04:55;;;;;;;4.68;2.42;;;;;;;19.56;73.70;102054.41;5055436;28;20211;-64
2023/09/04 11:07:20;;;;;;;4.00;3.10;;;;;;;19.60;73.60;102063.81;5058461;28;20020;-68
2023/09/04 11:10:06;;;;;;;3.03;2.15;;;;;;;19.65;73.09;102066.78;5054813;28;20017;-67
2023/09/04 11:12:35;;;;;;;4.78;2.72;;;;;;;19.61;74.55;102057.38;5039088;28;20538;-66